sensor_id;sensor_type;location;lat;lon;timestamp;pressure;altitude;pressure_sealevel;temperature;humidity
27980;BME280;15315;50.836;4.430;2022-12-18T00:07:10;102183.22;;;1.92;67.67
27980;BME280;15315;50.836;4.430;2022-12-18T00:17:10;102190.88;;;1.34;69.70
27980;BME280;15315;50.836;4.430;2022-12-18T00:27:10;102166.00;;;1.41;68.55
27980;BME280;15315;50.836;4.430;2022-12-18T00:37:11;102155.84;;;1.81;68.13
27980;BME280;15315;50.836;4.430;2022-12-18T00:47:11;102142.75;;;1.64;66.15
27980;BME280;15315;50.836;4.430;2022-12-18T00:57:12;102151.53;;;0.75;68.03
27980;BME280;15315;50.836;4.430;2022-12-18T01:07:12;102129.81;;;1.28;66.53
27980;BME280;15315;50.836;4.430;2022-12-18T01:17:12;102131.78;;;1.07;66.75
27980;BME280;15315;50.836;4.430;2022-12-18T01:27:13;102141.25;;;1.36;66.23
27980;BME280;15315;50.836;4.430;2022-12-18T01:37:13;102133.66;;;0.95;67.07
27980;BME280;15315;50.836;4.430;2022-12-18T01:47:23;102133.00;;;0.63;66.61
27980;BME280;15315;50.836;4.430;2022-12-18T01:57:25;102122.88;;;1.15;65.55
27980;BME280;15315;50.836;4.430;2022-12-18T02:07:35;102147.63;;;1.17;65.87
27980;BME280;15315;50.836;4.430;2022-12-18T02:17:51;102145.16;;;0.97;65.40
27980;BME280;15315;50.836;4.430;2022-12-18T02:27:53;102129.22;;;0.94;64.82
27980;BME280;15315;50.836;4.430;2022-12-18T02:37:55;102107.38;;;0.65;65.80
27980;BME280;15315;50.836;4.430;2022-12-18T02:47:56;102109.94;;;0.74;64.98
27980;BME280;15315;50.836;4.430;2022-12-18T03:08:06;102092.91;;;-0.50;65.66
27980;BME280;15315;50.836;4.430;2022-12-18T03:18:12;102092.38;;;0.56;64.90
27980;BME280;15315;50.836;4.430;2022-12-18T03:28:16;102093.94;;;0.83;64.88
27980;BME280;15315;50.836;4.430;2022-12-18T03:38:19;102095.41;;;1.14;64.04
27980;BME280;15315;50.836;4.430;2022-12-18T03:48:26;102084.38;;;0.58;63.53
27980;BME280;15315;50.836;4.430;2022-12-18T03:58:31;102067.84;;;0.22;64.04
27980;BME280;15315;50.836;4.430;2022-12-18T04:08:33;102061.41;;;0.60;63.36
27980;BME280;15315;50.836;4.430;2022-12-18T04:18:35;102075.53;;;0.62;62.28
27980;BME280;15315;50.836;4.430;2022-12-18T04:28:36;102093.34;;;0.43;62.29
27980;BME280;15315;50.836;4.430;2022-12-18T04:38:36;102093.16;;;0.72;61.22
27980;BME280;15315;50.836;4.430;2022-12-18T04:48:37;102102.41;;;0.09;61.43
27980;BME280;15315;50.836;4.430;2022-12-18T04:58:39;102098.00;;;-0.01;61.71
27980;BME280;15315;50.836;4.430;2022-12-18T05:08:39;102082.06;;;0.08;61.41
27980;BME280;15315;50.836;4.430;2022-12-18T05:18:40;102071.47;;;0.08;61.83
27980;BME280;15315;50.836;4.430;2022-12-18T05:28:40;102068.19;;;-0.55;62.91
27980;BME280;15315;50.836;4.430;2022-12-18T05:38:41;102059.19;;;-0.11;61.46
27980;BME280;15315;50.836;4.430;2022-12-18T05:48:42;102045.84;;;0.07;61.26
27980;BME280;15315;50.836;4.430;2022-12-18T05:58:43;102063.56;;;-0.03;61.76
27980;BME280;15315;50.836;4.430;2022-12-18T06:08:44;102082.13;;;0.00;62.24
27980;BME280;15315;50.836;4.430;2022-12-18T06:18:44;102062.72;;;-0.14;61.44
27980;BME280;15315;50.836;4.430;2022-12-18T06:28:45;102062.53;;;0.25;60.97
27980;BME280;15315;50.836;4.430;2022-12-18T06:38:45;102058.50;;;-0.51;61.99
27980;BME280;15315;50.836;4.430;2022-12-18T06:48:47;102044.13;;;-0.00;61.56
27980;BME280;15315;50.836;4.430;2022-12-18T06:58:50;102020.16;;;0.15;61.62
27980;BME280;15315;50.836;4.430;2022-12-18T07:08:51;102002.47;;;0.17;61.31
27980;BME280;15315;50.836;4.430;2022-12-18T07:18:54;101984.94;;;0.01;61.38
27980;BME280;15315;50.836;4.430;2022-12-18T07:28:56;101988.69;;;-0.44;62.85
27980;BME280;15315;50.836;4.430;2022-12-18T07:38:57;101960.31;;;-0.18;63.09
27980;BME280;15315;50.836;4.430;2022-12-18T07:48:58;101941.63;;;0.00;63.32
27980;BME280;15315;50.836;4.430;2022-12-18T07:58:58;101928.97;;;0.32;62.63
27980;BME280;15315;50.836;4.430;2022-12-18T08:08:59;101943.09;;;0.39;63.15
27980;BME280;15315;50.836;4.430;2022-12-18T08:18:59;101934.88;;;0.65;63.54
27980;BME280;15315;50.836;4.430;2022-12-18T08:29:00;101914.66;;;0.55;64.55
27980;BME280;15315;50.836;4.430;2022-12-18T08:39:00;101918.59;;;0.04;65.25
27980;BME280;15315;50.836;4.430;2022-12-18T08:49:01;101906.06;;;1.07;63.86
27980;BME280;15315;50.836;4.430;2022-12-18T08:59:02;101902.91;;;0.77;64.57
27980;BME280;15315;50.836;4.430;2022-12-18T09:09:03;101906.94;;;0.24;66.89
27980;BME280;15315;50.836;4.430;2022-12-18T09:19:04;101897.09;;;1.18;64.46
27980;BME280;15315;50.836;4.430;2022-12-18T09:29:05;101891.28;;;1.52;63.71
27980;BME280;15315;50.836;4.430;2022-12-18T09:39:07;101876.69;;;2.34;62.01
27980;BME280;15315;50.836;4.430;2022-12-18T09:49:12;101882.41;;;2.11;63.03
27980;BME280;15315;50.836;4.430;2022-12-18T09:59:35;101876.28;;;2.57;60.16
27980;BME280;15315;50.836;4.430;2022-12-18T10:09:55;101857.09;;;3.27;59.39
27980;BME280;15315;50.836;4.430;2022-12-18T10:20:02;101833.47;;;2.69;61.03
27980;BME280;15315;50.836;4.430;2022-12-18T10:30:24;101824.72;;;3.05;61.10
27980;BME280;15315;50.836;4.430;2022-12-18T10:40:25;101804.97;;;3.52;59.45
27980;BME280;15315;50.836;4.430;2022-12-18T10:50:34;101801.47;;;3.85;58.17
27980;BME280;15315;50.836;4.430;2022-12-18T11:00:34;101802.56;;;4.12;57.76
27980;BME280;15315;50.836;4.430;2022-12-18T11:10:39;101791.28;;;4.67;57.46
27980;BME280;15315;50.836;4.430;2022-12-18T11:20:41;101792.72;;;3.80;58.71
27980;BME280;15315;50.836;4.430;2022-12-18T11:30:41;101787.84;;;3.62;58.98
27980;BME280;15315;50.836;4.430;2022-12-18T11:40:44;101793.78;;;4.41;57.60
27980;BME280;15315;50.836;4.430;2022-12-18T11:50:51;101795.25;;;4.83;58.08
27980;BME280;15315;50.836;4.430;2022-12-18T12:01:03;101785.16;;;5.22;56.07
27980;BME280;15315;50.836;4.430;2022-12-18T12:11:16;101755.66;;;4.36;57.88
27980;BME280;15315;50.836;4.430;2022-12-18T12:31:36;101743.44;;;5.44;56.65
27980;BME280;15315;50.836;4.430;2022-12-18T12:41:42;101727.44;;;5.69;55.71
27980;BME280;15315;50.836;4.430;2022-12-18T12:52:08;101712.69;;;5.57;54.41
27980;BME280;15315;50.836;4.430;2022-12-18T13:02:22;101706.97;;;5.41;53.80
27980;BME280;15315;50.836;4.430;2022-12-18T13:12:23;101709.41;;;5.49;54.73
27980;BME280;15315;50.836;4.430;2022-12-18T13:22:49;101689.03;;;5.96;54.38
27980;BME280;15315;50.836;4.430;2022-12-18T13:53:23;101694.13;;;5.26;55.38
27980;BME280;15315;50.836;4.430;2022-12-18T14:03:27;101673.03;;;5.17;55.21
27980;BME280;15315;50.836;4.430;2022-12-18T14:13:33;101681.41;;;5.07;56.32
27980;BME280;15315;50.836;4.430;2022-12-18T14:23:36;101685.09;;;4.75;57.30
27980;BME280;15315;50.836;4.430;2022-12-18T14:33:37;101681.72;;;5.24;56.37
27980;BME280;15315;50.836;4.430;2022-12-18T14:43:43;101660.09;;;5.31;56.65
27980;BME280;15315;50.836;4.430;2022-12-18T14:53:51;101637.69;;;5.09;56.90
27980;BME280;15315;50.836;4.430;2022-12-18T15:03:54;101632.94;;;4.91;56.63
27980;BME280;15315;50.836;4.430;2022-12-18T15:13:57;101621.88;;;4.74;57.88
27980;BME280;15315;50.836;4.430;2022-12-18T15:23:57;101613.53;;;4.58;57.94
27980;BME280;15315;50.836;4.430;2022-12-18T15:43:59;101595.41;;;4.39;58.17
27980;BME280;15315;50.836;4.430;2022-12-18T15:54:03;101596.88;;;4.76;55.90
27980;BME280;15315;50.836;4.430;2022-12-18T16:04:05;101587.03;;;4.78;56.17
27980;BME280;15315;50.836;4.430;2022-12-18T16:24:20;101568.09;;;4.86;55.13
27980;BME280;15315;50.836;4.430;2022-12-18T16:44:27;101548.16;;;4.70;53.75
27980;BME280;15315;50.836;4.430;2022-12-18T16:54:28;101538.72;;;4.86;54.64
27980;BME280;15315;50.836;4.430;2022-12-18T17:04:32;101532.91;;;5.24;53.24
27980;BME280;15315;50.836;4.430;2022-12-18T17:14:33;101519.44;;;4.50;55.05
27980;BME280;15315;50.836;4.430;2022-12-18T17:24:34;101530.72;;;5.11;55.05
27980;BME280;15315;50.836;4.430;2022-12-18T17:34:34;101535.09;;;4.87;57.09
27980;BME280;15315;50.836;4.430;2022-12-18T17:44:36;101538.41;;;5.20;58.18
27980;BME280;15315;50.836;4.430;2022-12-18T17:54:36;101536.56;;;5.46;60.72
27980;BME280;15315;50.836;4.430;2022-12-18T18:04:38;101517.84;;;5.46;65.08
27980;BME280;15315;50.836;4.430;2022-12-18T18:14:39;101514.50;;;5.15;69.79
27980;BME280;15315;50.836;4.430;2022-12-18T18:24:39;101516.88;;;4.73;76.62
27980;BME280;15315;50.836;4.430;2022-12-18T18:34:40;101512.00;;;4.32;84.12
27980;BME280;15315;50.836;4.430;2022-12-18T18:44:40;101527.00;;;5.15;82.99
27980;BME280;15315;50.836;4.430;2022-12-18T18:54:41;101525.59;;;5.29;85.62
27980;BME280;15315;50.836;4.430;2022-12-18T19:04:42;101530.72;;;5.35;88.04
27980;BME280;15315;50.836;4.430;2022-12-18T19:14:43;101529.63;;;5.16;91.75
27980;BME280;15315;50.836;4.430;2022-12-18T19:24:43;101530.28;;;5.47;92.33
27980;BME280;15315;50.836;4.430;2022-12-18T19:34:44;101531.25;;;4.96;99.55
27980;BME280;15315;50.836;4.430;2022-12-18T19:44:44;101535.72;;;5.20;100.00
27980;BME280;15315;50.836;4.430;2022-12-18T19:54:44;101511.72;;;5.68;99.90
27980;BME280;15315;50.836;4.430;2022-12-18T20:04:46;101514.41;;;5.43;100.00
27980;BME280;15315;50.836;4.430;2022-12-18T20:14:48;101504.00;;;4.84;100.00
27980;BME280;15315;50.836;4.430;2022-12-18T20:24:48;101506.03;;;4.78;100.00
27980;BME280;15315;50.836;4.430;2022-12-18T20:34:49;101494.88;;;4.92;100.00
27980;BME280;15315;50.836;4.430;2022-12-18T20:44:49;101485.50;;;5.05;100.00
27980;BME280;15315;50.836;4.430;2022-12-18T20:54:50;101450.38;;;4.91;100.00
27980;BME280;15315;50.836;4.430;2022-12-18T21:04:50;101442.09;;;4.98;100.00
27980;BME280;15315;50.836;4.430;2022-12-18T21:14:52;101422.41;;;4.23;100.00
27980;BME280;15315;50.836;4.430;2022-12-18T21:24:52;101402.50;;;4.84;100.00
27980;BME280;15315;50.836;4.430;2022-12-18T21:34:53;101398.50;;;5.67;100.00
27980;BME280;15315;50.836;4.430;2022-12-18T21:44:53;101382.59;;;4.44;100.00
27980;BME280;15315;50.836;4.430;2022-12-18T21:54:54;101370.66;;;5.26;100.00
27980;BME280;15315;50.836;4.430;2022-12-18T22:04:55;101351.00;;;4.56;100.00
27980;BME280;15315;50.836;4.430;2022-12-18T22:14:55;101346.13;;;5.15;100.00
27980;BME280;15315;50.836;4.430;2022-12-18T22:24:56;101349.00;;;5.56;100.00
27980;BME280;15315;50.836;4.430;2022-12-18T22:34:56;101344.53;;;5.11;100.00
27980;BME280;15315;50.836;4.430;2022-12-18T22:44:57;101318.84;;;5.07;100.00
27980;BME280;15315;50.836;4.430;2022-12-18T22:54:59;101306.44;;;4.58;100.00
27980;BME280;15315;50.836;4.430;2022-12-18T23:04:59;101324.00;;;5.35;100.00
27980;BME280;15315;50.836;4.430;2022-12-18T23:15:00;101289.97;;;6.03;100.00
27980;BME280;15315;50.836;4.430;2022-12-18T23:25:00;101269.81;;;6.17;100.00
27980;BME280;15315;50.836;4.430;2022-12-18T23:35:01;101254.50;;;5.98;100.00
27980;BME280;15315;50.836;4.430;2022-12-18T23:45:01;101228.69;;;6.38;100.00
27980;BME280;15315;50.836;4.430;2022-12-18T23:55:02;101233.00;;;6.22;100.00
